sensor_id;sensor_type;location;lat;lon;timestamp;P1;durP1;ratioP1;P2;durP2;ratioP2
71975;SDS011;60680;52.182;5.398;2023-02-20T00:01:30;8.87;;;4.10;;
71975;SDS011;60680;52.182;5.398;2023-02-20T00:03:57;8.60;;;3.58;;
71975;SDS011;60680;52.182;5.398;2023-02-20T00:06:24;9.70;;;4.40;;
71975;SDS011;60680;52.182;5.398;2023-02-20T00:08:50;11.07;;;4.40;;
71975;SDS011;60680;52.182;5.398;2023-02-20T00:11:17;10.15;;;4.20;;
71975;SDS011;60680;52.182;5.398;2023-02-20T00:13:44;7.97;;;3.60;;
71975;SDS011;60680;52.182;5.398;2023-02-20T00:16:12;9.55;;;4.22;;
71975;SDS011;60680;52.182;5.398;2023-02-20T00:18:39;8.25;;;4.00;;
71975;SDS011;60680;52.182;5.398;2023-02-20T00:21:06;9.60;;;4.03;;
71975;SDS011;60680;52.182;5.398;2023-02-20T00:23:32;9.45;;;4.25;;
71975;SDS011;60680;52.182;5.398;2023-02-20T00:25:59;8.53;;;4.00;;
71975;SDS011;60680;52.182;5.398;2023-02-20T00:28:26;9.13;;;3.78;;
71975;SDS011;60680;52.182;5.398;2023-02-20T00:30:52;12.82;;;4.47;;
71975;SDS011;60680;52.182;5.398;2023-02-20T00:33:19;11.95;;;4.43;;
71975;SDS011;60680;52.182;5.398;2023-02-20T00:35:45;10.02;;;4.53;;
71975;SDS011;60680;52.182;5.398;2023-02-20T00:38:12;10.53;;;4.60;;
71975;SDS011;60680;52.182;5.398;2023-02-20T00:40:39;10.63;;;4.15;;
71975;SDS011;60680;52.182;5.398;2023-02-20T00:43:05;9.82;;;4.50;;
71975;SDS011;60680;52.182;5.398;2023-02-20T00:45:31;11.02;;;4.47;;
71975;SDS011;60680;52.182;5.398;2023-02-20T00:47:58;9.90;;;4.35;;
71975;SDS011;60680;52.182;5.398;2023-02-20T00:50:24;9.33;;;4.47;;
71975;SDS011;60680;52.182;5.398;2023-02-20T00:52:51;11.65;;;4.25;;
71975;SDS011;60680;52.182;5.398;2023-02-20T00:55:17;10.40;;;4.57;;
71975;SDS011;60680;52.182;5.398;2023-02-20T00:57:44;11.07;;;4.63;;
71975;SDS011;60680;52.182;5.398;2023-02-20T01:00:15;13.25;;;4.95;;
71975;SDS011;60680;52.182;5.398;2023-02-20T01:02:47;10.37;;;4.43;;
71975;SDS011;60680;52.182;5.398;2023-02-20T01:05:13;9.48;;;4.60;;
71975;SDS011;60680;52.182;5.398;2023-02-20T01:07:40;9.57;;;3.95;;
71975;SDS011;60680;52.182;5.398;2023-02-20T01:10:08;11.25;;;4.80;;
71975;SDS011;60680;52.182;5.398;2023-02-20T01:12:36;13.35;;;4.88;;
71975;SDS011;60680;52.182;5.398;2023-02-20T01:15:04;11.70;;;4.43;;
71975;SDS011;60680;52.182;5.398;2023-02-20T01:17:31;10.25;;;4.78;;
71975;SDS011;60680;52.182;5.398;2023-02-20T01:19:58;13.85;;;4.70;;
71975;SDS011;60680;52.182;5.398;2023-02-20T01:22:24;10.45;;;4.63;;
71975;SDS011;60680;52.182;5.398;2023-02-20T01:24:51;12.55;;;4.63;;
71975;SDS011;60680;52.182;5.398;2023-02-20T01:27:17;9.90;;;4.20;;
71975;SDS011;60680;52.182;5.398;2023-02-20T01:29:44;10.80;;;4.57;;
71975;SDS011;60680;52.182;5.398;2023-02-20T01:32:11;13.52;;;4.72;;
71975;SDS011;60680;52.182;5.398;2023-02-20T01:34:38;11.18;;;4.78;;
71975;SDS011;60680;52.182;5.398;2023-02-20T01:37:04;12.80;;;5.47;;
71975;SDS011;60680;52.182;5.398;2023-02-20T01:39:31;14.50;;;5.67;;
71975;SDS011;60680;52.182;5.398;2023-02-20T01:42:01;17.23;;;5.97;;
71975;SDS011;60680;52.182;5.398;2023-02-20T01:44:31;13.35;;;4.82;;
71975;SDS011;60680;52.182;5.398;2023-02-20T01:47:12;11.65;;;5.53;;
71975;SDS011;60680;52.182;5.398;2023-02-20T01:49:43;10.05;;;5.07;;
71975;SDS011;60680;52.182;5.398;2023-02-20T01:52:18;10.33;;;5.13;;
71975;SDS011;60680;52.182;5.398;2023-02-20T01:54:50;12.45;;;5.45;;
71975;SDS011;60680;52.182;5.398;2023-02-20T01:57:21;12.93;;;6.05;;
71975;SDS011;60680;52.182;5.398;2023-02-20T01:59:51;14.45;;;6.88;;
71975;SDS011;60680;52.182;5.398;2023-02-20T02:02:22;12.23;;;5.43;;
71975;SDS011;60680;52.182;5.398;2023-02-20T02:04:50;15.37;;;6.77;;
71975;SDS011;60680;52.182;5.398;2023-02-20T02:07:17;17.80;;;6.93;;
71975;SDS011;60680;52.182;5.398;2023-02-20T02:09:52;14.82;;;6.60;;
71975;SDS011;60680;52.182;5.398;2023-02-20T02:12:23;17.60;;;7.43;;
71975;SDS011;60680;52.182;5.398;2023-02-20T02:14:50;16.05;;;6.78;;
71975;SDS011;60680;52.182;5.398;2023-02-20T02:37:13;20.08;;;8.02;;
71975;SDS011;60680;52.182;5.398;2023-02-20T02:42:36;23.95;;;9.02;;
71975;SDS011;60680;52.182;5.398;2023-02-20T02:45:28;17.43;;;8.40;;
71975;SDS011;60680;52.182;5.398;2023-02-20T02:50:29;24.70;;;8.02;;
71975;SDS011;60680;52.182;5.398;2023-02-20T02:52:59;21.35;;;8.65;;
71975;SDS011;60680;52.182;5.398;2023-02-20T02:55:28;20.10;;;8.73;;
71975;SDS011;60680;52.182;5.398;2023-02-20T02:57:56;19.77;;;8.60;;
71975;SDS011;60680;52.182;5.398;2023-02-20T03:00:37;26.58;;;9.27;;
71975;SDS011;60680;52.182;5.398;2023-02-20T03:03:20;21.83;;;8.98;;
71975;SDS011;60680;52.182;5.398;2023-02-20T03:08:41;29.75;;;9.20;;
71975;SDS011;60680;52.182;5.398;2023-02-20T03:11:18;22.33;;;8.67;;
71975;SDS011;60680;52.182;5.398;2023-02-20T03:16:57;27.42;;;10.20;;
71975;SDS011;60680;52.182;5.398;2023-02-20T03:19:29;25.83;;;10.32;;
71975;SDS011;60680;52.182;5.398;2023-02-20T03:22:00;27.52;;;9.55;;
71975;SDS011;60680;52.182;5.398;2023-02-20T03:24:32;31.77;;;10.87;;
71975;SDS011;60680;52.182;5.398;2023-02-20T03:27:39;31.75;;;9.73;;
71975;SDS011;60680;52.182;5.398;2023-02-20T03:33:12;27.35;;;10.23;;
71975;SDS011;60680;52.182;5.398;2023-02-20T03:35:59;29.40;;;10.80;;
71975;SDS011;60680;52.182;5.398;2023-02-20T03:38:46;28.37;;;9.70;;
71975;SDS011;60680;52.182;5.398;2023-02-20T03:41:37;36.10;;;11.00;;
71975;SDS011;60680;52.182;5.398;2023-02-20T03:44:25;23.02;;;10.68;;
71975;SDS011;60680;52.182;5.398;2023-02-20T03:46:55;29.55;;;10.38;;
71975;SDS011;60680;52.182;5.398;2023-02-20T03:49:26;26.48;;;10.63;;
71975;SDS011;60680;52.182;5.398;2023-02-20T03:52:16;29.80;;;11.37;;
71975;SDS011;60680;52.182;5.398;2023-02-20T03:54:43;29.45;;;11.23;;
71975;SDS011;60680;52.182;5.398;2023-02-20T03:59:51;26.58;;;10.07;;
71975;SDS011;60680;52.182;5.398;2023-02-20T04:02:26;31.48;;;11.70;;
71975;SDS011;60680;52.182;5.398;2023-02-20T04:04:57;26.80;;;10.33;;
71975;SDS011;60680;52.182;5.398;2023-02-20T04:07:35;24.05;;;9.77;;
71975;SDS011;60680;52.182;5.398;2023-02-20T04:10:08;29.90;;;10.57;;
71975;SDS011;60680;52.182;5.398;2023-02-20T04:12:40;27.85;;;10.63;;
71975;SDS011;60680;52.182;5.398;2023-02-20T04:15:09;22.63;;;9.90;;
71975;SDS011;60680;52.182;5.398;2023-02-20T04:17:48;27.77;;;9.87;;
71975;SDS011;60680;52.182;5.398;2023-02-20T04:20:21;34.25;;;10.00;;
71975;SDS011;60680;52.182;5.398;2023-02-20T04:22:48;27.90;;;11.40;;
71975;SDS011;60680;52.182;5.398;2023-02-20T04:25:27;25.60;;;10.35;;
71975;SDS011;60680;52.182;5.398;2023-02-20T04:28:23;31.13;;;10.05;;
71975;SDS011;60680;52.182;5.398;2023-02-20T04:30:51;26.87;;;10.70;;
71975;SDS011;60680;52.182;5.398;2023-02-20T04:33:17;33.97;;;11.52;;
71975;SDS011;60680;52.182;5.398;2023-02-20T04:35:44;27.48;;;10.98;;
71975;SDS011;60680;52.182;5.398;2023-02-20T04:38:11;27.15;;;10.35;;
71975;SDS011;60680;52.182;5.398;2023-02-20T04:40:38;25.27;;;10.45;;
71975;SDS011;60680;52.182;5.398;2023-02-20T04:43:04;27.07;;;9.87;;
71975;SDS011;60680;52.182;5.398;2023-02-20T04:45:31;28.27;;;10.85;;
71975;SDS011;60680;52.182;5.398;2023-02-20T04:47:58;25.77;;;10.77;;
71975;SDS011;60680;52.182;5.398;2023-02-20T04:50:29;30.27;;;11.32;;
71975;SDS011;60680;52.182;5.398;2023-02-20T04:52:57;26.70;;;11.20;;
71975;SDS011;60680;52.182;5.398;2023-02-20T04:55:24;23.27;;;10.37;;
71975;SDS011;60680;52.182;5.398;2023-02-20T04:57:50;23.65;;;9.90;;
71975;SDS011;60680;52.182;5.398;2023-02-20T05:00:18;30.98;;;10.50;;
71975;SDS011;60680;52.182;5.398;2023-02-20T05:02:47;24.65;;;11.05;;
71975;SDS011;60680;52.182;5.398;2023-02-20T05:05:18;37.63;;;10.57;;
71975;SDS011;60680;52.182;5.398;2023-02-20T05:07:44;29.93;;;11.60;;
71975;SDS011;60680;52.182;5.398;2023-02-20T05:10:15;29.30;;;11.32;;
71975;SDS011;60680;52.182;5.398;2023-02-20T05:12:42;27.80;;;10.55;;
71975;SDS011;60680;52.182;5.398;2023-02-20T05:15:09;32.28;;;10.57;;
71975;SDS011;60680;52.182;5.398;2023-02-20T05:17:36;31.90;;;10.88;;
71975;SDS011;60680;52.182;5.398;2023-02-20T05:20:04;25.57;;;10.03;;
71975;SDS011;60680;52.182;5.398;2023-02-20T05:22:31;26.90;;;10.63;;
71975;SDS011;60680;52.182;5.398;2023-02-20T05:24:58;28.50;;;10.35;;
71975;SDS011;60680;52.182;5.398;2023-02-20T05:27:27;26.52;;;10.05;;
71975;SDS011;60680;52.182;5.398;2023-02-20T05:29:54;26.90;;;10.73;;
71975;SDS011;60680;52.182;5.398;2023-02-20T05:32:23;26.10;;;9.53;;
71975;SDS011;60680;52.182;5.398;2023-02-20T05:34:51;29.42;;;9.70;;
71975;SDS011;60680;52.182;5.398;2023-02-20T05:37:18;23.92;;;10.00;;
71975;SDS011;60680;52.182;5.398;2023-02-20T05:39:46;26.75;;;9.73;;
71975;SDS011;60680;52.182;5.398;2023-02-20T05:42:12;20.50;;;9.77;;
71975;SDS011;60680;52.182;5.398;2023-02-20T05:44:40;24.07;;;9.47;;
71975;SDS011;60680;52.182;5.398;2023-02-20T05:47:07;25.67;;;9.27;;
71975;SDS011;60680;52.182;5.398;2023-02-20T05:49:34;25.60;;;9.82;;
71975;SDS011;60680;52.182;5.398;2023-02-20T05:52:01;28.92;;;9.45;;
71975;SDS011;60680;52.182;5.398;2023-02-20T05:54:29;27.90;;;8.75;;
71975;SDS011;60680;52.182;5.398;2023-02-20T05:56:55;23.03;;;9.03;;
71975;SDS011;60680;52.182;5.398;2023-02-20T05:59:22;17.45;;;8.15;;
71975;SDS011;60680;52.182;5.398;2023-02-20T06:01:49;18.88;;;7.63;;
71975;SDS011;60680;52.182;5.398;2023-02-20T06:04:20;23.83;;;8.65;;
71975;SDS011;60680;52.182;5.398;2023-02-20T06:06:46;21.00;;;7.90;;
71975;SDS011;60680;52.182;5.398;2023-02-20T06:09:13;21.30;;;7.47;;
71975;SDS011;60680;52.182;5.398;2023-02-20T06:11:53;18.92;;;7.75;;
71975;SDS011;60680;52.182;5.398;2023-02-20T06:14:21;24.80;;;7.57;;
71975;SDS011;60680;52.182;5.398;2023-02-20T06:16:50;15.43;;;7.07;;
71975;SDS011;60680;52.182;5.398;2023-02-20T06:19:17;18.67;;;7.30;;
71975;SDS011;60680;52.182;5.398;2023-02-20T06:21:48;16.77;;;6.50;;
71975;SDS011;60680;52.182;5.398;2023-02-20T06:24:16;18.45;;;7.38;;
71975;SDS011;60680;52.182;5.398;2023-02-20T06:26:46;25.75;;;6.95;;
71975;SDS011;60680;52.182;5.398;2023-02-20T06:29:13;18.75;;;6.90;;
71975;SDS011;60680;52.182;5.398;2023-02-20T06:31:41;20.02;;;7.35;;
71975;SDS011;60680;52.182;5.398;2023-02-20T06:34:13;17.30;;;6.97;;
71975;SDS011;60680;52.182;5.398;2023-02-20T06:36:40;17.08;;;6.90;;
71975;SDS011;60680;52.182;5.398;2023-02-20T06:39:08;17.20;;;7.50;;
71975;SDS011;60680;52.182;5.398;2023-02-20T06:41:36;17.45;;;6.63;;
71975;SDS011;60680;52.182;5.398;2023-02-20T06:44:03;23.55;;;6.95;;
71975;SDS011;60680;52.182;5.398;2023-02-20T06:46:30;19.03;;;6.77;;
71975;SDS011;60680;52.182;5.398;2023-02-20T06:48:57;19.27;;;6.60;;
71975;SDS011;60680;52.182;5.398;2023-02-20T06:51:26;19.98;;;6.28;;
71975;SDS011;60680;52.182;5.398;2023-02-20T06:53:55;19.30;;;7.43;;
71975;SDS011;60680;52.182;5.398;2023-02-20T06:56:23;20.05;;;6.90;;
71975;SDS011;60680;52.182;5.398;2023-02-20T06:58:52;18.47;;;6.33;;
71975;SDS011;60680;52.182;5.398;2023-02-20T07:01:20;17.00;;;6.40;;
71975;SDS011;60680;52.182;5.398;2023-02-20T07:03:49;19.00;;;6.55;;
71975;SDS011;60680;52.182;5.398;2023-02-20T07:06:16;18.15;;;6.60;;
71975;SDS011;60680;52.182;5.398;2023-02-20T07:08:42;16.52;;;6.22;;
71975;SDS011;60680;52.182;5.398;2023-02-20T07:11:09;16.60;;;6.47;;
71975;SDS011;60680;52.182;5.398;2023-02-20T07:13:36;15.73;;;6.70;;
71975;SDS011;60680;52.182;5.398;2023-02-20T07:16:03;15.55;;;6.45;;
71975;SDS011;60680;52.182;5.398;2023-02-20T07:18:29;15.77;;;6.50;;
71975;SDS011;60680;52.182;5.398;2023-02-20T07:20:56;21.17;;;7.35;;
71975;SDS011;60680;52.182;5.398;2023-02-20T07:23:22;13.77;;;5.87;;
71975;SDS011;60680;52.182;5.398;2023-02-20T07:25:49;18.55;;;6.50;;
71975;SDS011;60680;52.182;5.398;2023-02-20T07:28:16;16.77;;;6.38;;
71975;SDS011;60680;52.182;5.398;2023-02-20T07:30:44;17.55;;;6.50;;
71975;SDS011;60680;52.182;5.398;2023-02-20T07:33:12;15.50;;;6.35;;
71975;SDS011;60680;52.182;5.398;2023-02-20T07:35:38;14.50;;;6.07;;
71975;SDS011;60680;52.182;5.398;2023-02-20T07:38:05;14.45;;;5.32;;
71975;SDS011;60680;52.182;5.398;2023-02-20T07:40:32;13.68;;;5.70;;
71975;SDS011;60680;52.182;5.398;2023-02-20T07:42:58;15.40;;;5.78;;
71975;SDS011;60680;52.182;5.398;2023-02-20T07:45:26;16.55;;;5.72;;
71975;SDS011;60680;52.182;5.398;2023-02-20T07:47:53;28.27;;;6.37;;
71975;SDS011;60680;52.182;5.398;2023-02-20T07:50:19;15.07;;;6.22;;
71975;SDS011;60680;52.182;5.398;2023-02-20T07:52:45;17.70;;;6.18;;
71975;SDS011;60680;52.182;5.398;2023-02-20T07:55:13;17.15;;;5.75;;
71975;SDS011;60680;52.182;5.398;2023-02-20T07:57:41;16.10;;;5.50;;
71975;SDS011;60680;52.182;5.398;2023-02-20T08:00:15;15.37;;;5.63;;
71975;SDS011;60680;52.182;5.398;2023-02-20T08:02:42;17.40;;;5.38;;
71975;SDS011;60680;52.182;5.398;2023-02-20T08:05:09;10.45;;;4.85;;
71975;SDS011;60680;52.182;5.398;2023-02-20T08:07:36;12.50;;;5.07;;
71975;SDS011;60680;52.182;5.398;2023-02-20T08:10:03;13.18;;;4.93;;
71975;SDS011;60680;52.182;5.398;2023-02-20T08:12:31;15.70;;;5.67;;
71975;SDS011;60680;52.182;5.398;2023-02-20T08:14:57;17.63;;;5.55;;
71975;SDS011;60680;52.182;5.398;2023-02-20T08:17:24;13.90;;;5.15;;
71975;SDS011;60680;52.182;5.398;2023-02-20T08:20:02;14.18;;;5.95;;
71975;SDS011;60680;52.182;5.398;2023-02-20T08:22:29;13.10;;;5.25;;
71975;SDS011;60680;52.182;5.398;2023-02-20T08:25:06;14.67;;;5.67;;
71975;SDS011;60680;52.182;5.398;2023-02-20T08:27:33;14.25;;;6.30;;
71975;SDS011;60680;52.182;5.398;2023-02-20T08:30:06;11.48;;;5.38;;
71975;SDS011;60680;52.182;5.398;2023-02-20T08:32:35;14.63;;;5.43;;
71975;SDS011;60680;52.182;5.398;2023-02-20T08:35:01;13.95;;;4.90;;
71975;SDS011;60680;52.182;5.398;2023-02-20T08:37:28;17.93;;;5.87;;
71975;SDS011;60680;52.182;5.398;2023-02-20T08:39:54;13.75;;;5.40;;
71975;SDS011;60680;52.182;5.398;2023-02-20T08:42:21;13.05;;;4.93;;
71975;SDS011;60680;52.182;5.398;2023-02-20T08:44:47;16.23;;;5.82;;
71975;SDS011;60680;52.182;5.398;2023-02-20T08:47:17;19.58;;;5.95;;
71975;SDS011;60680;52.182;5.398;2023-02-20T08:49:45;17.33;;;5.43;;
71975;SDS011;60680;52.182;5.398;2023-02-20T08:52:13;14.90;;;5.38;;
71975;SDS011;60680;52.182;5.398;2023-02-20T08:54:43;12.10;;;5.43;;
71975;SDS011;60680;52.182;5.398;2023-02-20T08:57:15;15.45;;;5.43;;
71975;SDS011;60680;52.182;5.398;2023-02-20T08:59:42;12.68;;;5.15;;
71975;SDS011;60680;52.182;5.398;2023-02-20T09:02:16;16.97;;;5.87;;
71975;SDS011;60680;52.182;5.398;2023-02-20T09:04:45;12.15;;;4.80;;
71975;SDS011;60680;52.182;5.398;2023-02-20T09:07:12;12.20;;;5.53;;
71975;SDS011;60680;52.182;5.398;2023-02-20T09:09:39;13.27;;;5.60;;
71975;SDS011;60680;52.182;5.398;2023-02-20T09:12:06;14.65;;;6.50;;
71975;SDS011;60680;52.182;5.398;2023-02-20T09:14:33;15.43;;;6.77;;
71975;SDS011;60680;52.182;5.398;2023-02-20T09:17:00;15.98;;;5.63;;
71975;SDS011;60680;52.182;5.398;2023-02-20T09:19:27;15.70;;;6.20;;
71975;SDS011;60680;52.182;5.398;2023-02-20T09:21:53;18.30;;;6.60;;
71975;SDS011;60680;52.182;5.398;2023-02-20T09:24:20;15.20;;;5.80;;
71975;SDS011;60680;52.182;5.398;2023-02-20T09:26:47;14.13;;;6.23;;
71975;SDS011;60680;52.182;5.398;2023-02-20T09:29:13;13.43;;;5.50;;
71975;SDS011;60680;52.182;5.398;2023-02-20T09:31:40;13.40;;;5.20;;
71975;SDS011;60680;52.182;5.398;2023-02-20T09:34:07;12.50;;;5.20;;
71975;SDS011;60680;52.182;5.398;2023-02-20T09:36:34;9.65;;;4.47;;
71975;SDS011;60680;52.182;5.398;2023-02-20T09:39:00;12.97;;;5.20;;
71975;SDS011;60680;52.182;5.398;2023-02-20T09:46:47;13.60;;;5.57;;
71975;SDS011;60680;52.182;5.398;2023-02-20T09:49:20;12.45;;;5.45;;
71975;SDS011;60680;52.182;5.398;2023-02-20T09:51:52;10.30;;;5.23;;
71975;SDS011;60680;52.182;5.398;2023-02-20T09:54:38;10.40;;;4.78;;
71975;SDS011;60680;52.182;5.398;2023-02-20T09:57:14;11.27;;;4.28;;
71975;SDS011;60680;52.182;5.398;2023-02-20T09:59:52;14.40;;;4.80;;
71975;SDS011;60680;52.182;5.398;2023-02-20T10:02:27;12.07;;;3.90;;
71975;SDS011;60680;52.182;5.398;2023-02-20T10:04:57;9.83;;;4.10;;
71975;SDS011;60680;52.182;5.398;2023-02-20T10:07:33;8.02;;;3.60;;
71975;SDS011;60680;52.182;5.398;2023-02-20T10:12:58;10.77;;;3.97;;
71975;SDS011;60680;52.182;5.398;2023-02-20T10:24:21;7.80;;;3.40;;
71975;SDS011;60680;52.182;5.398;2023-02-20T10:29:52;11.10;;;3.72;;
71975;SDS011;60680;52.182;5.398;2023-02-20T10:32:25;8.47;;;3.10;;
71975;SDS011;60680;52.182;5.398;2023-02-20T10:34:57;9.25;;;3.70;;
71975;SDS011;60680;52.182;5.398;2023-02-20T10:37:37;8.43;;;3.40;;
71975;SDS011;60680;52.182;5.398;2023-02-20T10:40:24;6.35;;;3.60;;
71975;SDS011;60680;52.182;5.398;2023-02-20T10:43:03;12.52;;;3.65;;
71975;SDS011;60680;52.182;5.398;2023-02-20T10:48:08;9.05;;;3.53;;
71975;SDS011;60680;52.182;5.398;2023-02-20T10:50:42;7.15;;;3.28;;
71975;SDS011;60680;52.182;5.398;2023-02-20T10:53:20;6.53;;;3.20;;
71975;SDS011;60680;52.182;5.398;2023-02-20T10:55:55;5.60;;;3.10;;
71975;SDS011;60680;52.182;5.398;2023-02-20T10:58:36;5.73;;;2.63;;
71975;SDS011;60680;52.182;5.398;2023-02-20T11:01:09;10.32;;;3.58;;
71975;SDS011;60680;52.182;5.398;2023-02-20T11:06:25;6.47;;;3.25;;
71975;SDS011;60680;52.182;5.398;2023-02-20T11:08:56;7.03;;;3.88;;
71975;SDS011;60680;52.182;5.398;2023-02-20T11:11:34;9.40;;;3.97;;
71975;SDS011;60680;52.182;5.398;2023-02-20T11:14:15;11.57;;;3.90;;
71975;SDS011;60680;52.182;5.398;2023-02-20T11:17:00;8.57;;;4.20;;
71975;SDS011;60680;52.182;5.398;2023-02-20T11:19:37;9.32;;;4.68;;
71975;SDS011;60680;52.182;5.398;2023-02-20T11:22:04;9.57;;;4.90;;
71975;SDS011;60680;52.182;5.398;2023-02-20T11:24:32;10.37;;;5.13;;
71975;SDS011;60680;52.182;5.398;2023-02-20T11:27:12;13.48;;;4.80;;
71975;SDS011;60680;52.182;5.398;2023-02-20T11:32:27;9.73;;;5.25;;
71975;SDS011;60680;52.182;5.398;2023-02-20T11:35:03;8.90;;;5.25;;
71975;SDS011;60680;52.182;5.398;2023-02-20T11:37:39;11.33;;;6.10;;
71975;SDS011;60680;52.182;5.398;2023-02-20T11:40:22;8.77;;;5.75;;
71975;SDS011;60680;52.182;5.398;2023-02-20T11:42:54;13.63;;;6.63;;
71975;SDS011;60680;52.182;5.398;2023-02-20T11:45:22;13.48;;;6.68;;
71975;SDS011;60680;52.182;5.398;2023-02-20T11:50:37;13.63;;;7.00;;
71975;SDS011;60680;52.182;5.398;2023-02-20T11:56:29;12.45;;;6.25;;
71975;SDS011;60680;52.182;5.398;2023-02-20T11:58:39;13.13;;;6.68;;
71975;SDS011;60680;52.182;5.398;2023-02-20T12:01:06;11.40;;;6.85;;
71975;SDS011;60680;52.182;5.398;2023-02-20T12:03:53;11.90;;;6.70;;
71975;SDS011;60680;52.182;5.398;2023-02-20T12:08:58;13.52;;;7.05;;
71975;SDS011;60680;52.182;5.398;2023-02-20T12:11:28;10.90;;;6.78;;
71975;SDS011;60680;52.182;5.398;2023-02-20T12:13:56;9.13;;;5.78;;
71975;SDS011;60680;52.182;5.398;2023-02-20T12:22:00;7.43;;;3.33;;
71975;SDS011;60680;52.182;5.398;2023-02-20T12:24:41;5.43;;;3.15;;
71975;SDS011;60680;52.182;5.398;2023-02-20T12:35:22;5.60;;;2.50;;
71975;SDS011;60680;52.182;5.398;2023-02-20T12:38:07;6.40;;;3.30;;
71975;SDS011;60680;52.182;5.398;2023-02-20T12:40:47;5.82;;;2.15;;
71975;SDS011;60680;52.182;5.398;2023-02-20T12:43:45;5.77;;;2.80;;
71975;SDS011;60680;52.182;5.398;2023-02-20T13:00:35;9.13;;;3.33;;
71975;SDS011;60680;52.182;5.398;2023-02-20T13:03:07;10.02;;;3.60;;
71975;SDS011;60680;52.182;5.398;2023-02-20T13:05:41;7.25;;;4.00;;
71975;SDS011;60680;52.182;5.398;2023-02-20T13:08:11;12.93;;;4.55;;
71975;SDS011;60680;52.182;5.398;2023-02-20T13:10:56;11.30;;;5.03;;
71975;SDS011;60680;52.182;5.398;2023-02-20T13:13:26;9.80;;;4.60;;
71975;SDS011;60680;52.182;5.398;2023-02-20T13:19:04;11.50;;;5.03;;
71975;SDS011;60680;52.182;5.398;2023-02-20T13:21:40;10.77;;;5.30;;
71975;SDS011;60680;52.182;5.398;2023-02-20T13:26:55;11.27;;;4.93;;
71975;SDS011;60680;52.182;5.398;2023-02-20T13:29:26;7.38;;;5.32;;
71975;SDS011;60680;52.182;5.398;2023-02-20T13:32:02;9.65;;;5.10;;
71975;SDS011;60680;52.182;5.398;2023-02-20T13:34:47;8.45;;;4.85;;
71975;SDS011;60680;52.182;5.398;2023-02-20T13:40:33;10.50;;;5.15;;
71975;SDS011;60680;52.182;5.398;2023-02-20T13:45:49;8.38;;;4.53;;
71975;SDS011;60680;52.182;5.398;2023-02-20T13:48:47;9.57;;;4.82;;
71975;SDS011;60680;52.182;5.398;2023-02-20T13:53:52;10.10;;;5.43;;
71975;SDS011;60680;52.182;5.398;2023-02-20T13:58:56;13.20;;;5.38;;
71975;SDS011;60680;52.182;5.398;2023-02-20T14:01:24;8.00;;;4.70;;
71975;SDS011;60680;52.182;5.398;2023-02-20T14:04:01;9.57;;;5.30;;
71975;SDS011;60680;52.182;5.398;2023-02-20T14:06:29;11.45;;;6.00;;
71975;SDS011;60680;52.182;5.398;2023-02-20T14:09:09;9.98;;;5.88;;
71975;SDS011;60680;52.182;5.398;2023-02-20T14:11:41;10.80;;;5.22;;
71975;SDS011;60680;52.182;5.398;2023-02-20T14:14:19;12.82;;;5.65;;
71975;SDS011;60680;52.182;5.398;2023-02-20T14:17:06;10.93;;;4.87;;
71975;SDS011;60680;52.182;5.398;2023-02-20T14:19:41;14.85;;;5.97;;
71975;SDS011;60680;52.182;5.398;2023-02-20T14:22:20;8.80;;;5.30;;
71975;SDS011;60680;52.182;5.398;2023-02-20T14:27:45;9.13;;;5.30;;
71975;SDS011;60680;52.182;5.398;2023-02-20T14:32:44;8.80;;;3.90;;
71975;SDS011;60680;52.182;5.398;2023-02-20T14:37:54;9.73;;;4.40;;
71975;SDS011;60680;52.182;5.398;2023-02-20T14:40:42;6.22;;;3.50;;
71975;SDS011;60680;52.182;5.398;2023-02-20T14:45:47;13.52;;;5.78;;
71975;SDS011;60680;52.182;5.398;2023-02-20T14:48:28;13.35;;;6.88;;
71975;SDS011;60680;52.182;5.398;2023-02-20T14:51:17;13.68;;;7.20;;
71975;SDS011;60680;52.182;5.398;2023-02-20T14:53:58;11.38;;;5.90;;
71975;SDS011;60680;52.182;5.398;2023-02-20T14:56:36;10.00;;;5.90;;
71975;SDS011;60680;52.182;5.398;2023-02-20T15:01:51;8.15;;;5.55;;
71975;SDS011;60680;52.182;5.398;2023-02-20T15:04:21;8.82;;;4.38;;
71975;SDS011;60680;52.182;5.398;2023-02-20T15:06:50;11.73;;;4.90;;
71975;SDS011;60680;52.182;5.398;2023-02-20T15:09:18;10.53;;;4.93;;
71975;SDS011;60680;52.182;5.398;2023-02-20T15:14:21;13.00;;;5.65;;
71975;SDS011;60680;52.182;5.398;2023-02-20T15:17:08;11.27;;;5.90;;
71975;SDS011;60680;52.182;5.398;2023-02-20T15:19:54;10.20;;;5.55;;
71975;SDS011;60680;52.182;5.398;2023-02-20T15:22:25;9.10;;;5.77;;
71975;SDS011;60680;52.182;5.398;2023-02-20T15:30:32;17.67;;;10.20;;
71975;SDS011;60680;52.182;5.398;2023-02-20T15:33:00;20.00;;;11.13;;
71975;SDS011;60680;52.182;5.398;2023-02-20T15:35:28;17.93;;;10.10;;
71975;SDS011;60680;52.182;5.398;2023-02-20T15:38:07;17.30;;;10.23;;
71975;SDS011;60680;52.182;5.398;2023-02-20T15:40:34;19.95;;;10.13;;
71975;SDS011;60680;52.182;5.398;2023-02-20T15:43:01;21.90;;;10.48;;
71975;SDS011;60680;52.182;5.398;2023-02-20T15:45:50;19.25;;;10.35;;
71975;SDS011;60680;52.182;5.398;2023-02-20T15:48:17;15.73;;;9.60;;
71975;SDS011;60680;52.182;5.398;2023-02-20T15:50:47;22.25;;;10.27;;
71975;SDS011;60680;52.182;5.398;2023-02-20T15:53:25;21.23;;;11.00;;
71975;SDS011;60680;52.182;5.398;2023-02-20T15:55:55;23.85;;;11.30;;
71975;SDS011;60680;52.182;5.398;2023-02-20T15:58:56;21.27;;;10.52;;
71975;SDS011;60680;52.182;5.398;2023-02-20T16:01:15;16.47;;;9.60;;
71975;SDS011;60680;52.182;5.398;2023-02-20T16:03:42;17.88;;;10.15;;
71975;SDS011;60680;52.182;5.398;2023-02-20T16:06:19;16.63;;;10.50;;
71975;SDS011;60680;52.182;5.398;2023-02-20T16:08:49;21.23;;;11.00;;
71975;SDS011;60680;52.182;5.398;2023-02-20T16:11:19;16.08;;;10.18;;
71975;SDS011;60680;52.182;5.398;2023-02-20T16:13:55;16.43;;;10.13;;
71975;SDS011;60680;52.182;5.398;2023-02-20T16:16:32;15.88;;;10.05;;
71975;SDS011;60680;52.182;5.398;2023-02-20T16:19:01;16.17;;;9.85;;
71975;SDS011;60680;52.182;5.398;2023-02-20T16:21:29;18.10;;;9.75;;
71975;SDS011;60680;52.182;5.398;2023-02-20T16:23:56;18.83;;;9.73;;
71975;SDS011;60680;52.182;5.398;2023-02-20T16:26:24;15.67;;;9.30;;
71975;SDS011;60680;52.182;5.398;2023-02-20T16:28:57;16.58;;;9.07;;
71975;SDS011;60680;52.182;5.398;2023-02-20T16:34:31;14.35;;;8.20;;
71975;SDS011;60680;52.182;5.398;2023-02-20T16:37:19;17.70;;;8.43;;
71975;SDS011;60680;52.182;5.398;2023-02-20T16:39:46;12.90;;;7.83;;
71975;SDS011;60680;52.182;5.398;2023-02-20T16:42:29;14.95;;;7.07;;
71975;SDS011;60680;52.182;5.398;2023-02-20T16:45:02;13.18;;;7.45;;
71975;SDS011;60680;52.182;5.398;2023-02-20T16:47:36;12.73;;;7.28;;
71975;SDS011;60680;52.182;5.398;2023-02-20T16:50:04;14.93;;;8.52;;
71975;SDS011;60680;52.182;5.398;2023-02-20T16:52:36;16.50;;;7.97;;
71975;SDS011;60680;52.182;5.398;2023-02-20T16:55:46;16.65;;;8.77;;
71975;SDS011;60680;52.182;5.398;2023-02-20T16:57:54;16.70;;;8.27;;
71975;SDS011;60680;52.182;5.398;2023-02-20T17:00:30;13.10;;;6.65;;
71975;SDS011;60680;52.182;5.398;2023-02-20T17:03:10;13.38;;;6.95;;
71975;SDS011;60680;52.182;5.398;2023-02-20T17:05:37;10.90;;;6.60;;
71975;SDS011;60680;52.182;5.398;2023-02-20T17:08:06;13.85;;;7.00;;
71975;SDS011;60680;52.182;5.398;2023-02-20T17:10:33;12.55;;;6.72;;
71975;SDS011;60680;52.182;5.398;2023-02-20T17:13:00;14.70;;;8.65;;
71975;SDS011;60680;52.182;5.398;2023-02-20T17:15:26;17.80;;;9.65;;
71975;SDS011;60680;52.182;5.398;2023-02-20T17:17:53;19.97;;;9.73;;
71975;SDS011;60680;52.182;5.398;2023-02-20T17:20:21;17.08;;;9.77;;
71975;SDS011;60680;52.182;5.398;2023-02-20T17:22:50;16.80;;;9.73;;